sensor_id;sensor_type;location;lat;lon;timestamp;P1;durP1;ratioP1;P2;durP2;ratioP2
79147;SDS011;68562;51.600;6.524;2024-01-27T00:00:00;0.5;;;0.5;;
79147;SDS011;68562;51.600;6.524;2024-01-27T00:05:00;0.8;;;0.8;;
79147;SDS011;68562;51.600;6.524;2024-01-27T00:10:01;0.7;;;0.5;;
79147;SDS011;68562;51.600;6.524;2024-01-27T00:15:00;0.7;;;0.7;;
79147;SDS011;68562;51.600;6.524;2024-01-27T00:20:00;1.0;;;0.7;;
79147;SDS011;68562;51.600;6.524;2024-01-27T00:25:00;0.7;;;0.7;;
79147;SDS011;68562;51.600;6.524;2024-01-27T00:30:01;0.8;;;0.8;;
79147;SDS011;68562;51.600;6.524;2024-01-27T00:35:00;4.5;;;1.4;;
79147;SDS011;68562;51.600;6.524;2024-01-27T00:40:00;1.1;;;1.1;;
79147;SDS011;68562;51.600;6.524;2024-01-27T00:45:00;1.4;;;1.3;;
79147;SDS011;68562;51.600;6.524;2024-01-27T00:50:00;1.5;;;0.8;;
79147;SDS011;68562;51.600;6.524;2024-01-27T00:55:00;0.8;;;0.8;;
79147;SDS011;68562;51.600;6.524;2024-01-27T01:00:00;3.2;;;0.7;;
79147;SDS011;68562;51.600;6.524;2024-01-27T01:05:00;2.8;;;1.0;;
79147;SDS011;68562;51.600;6.524;2024-01-27T01:10:00;3.2;;;0.6;;
79147;SDS011;68562;51.600;6.524;2024-01-27T01:15:00;0.5;;;0.5;;
79147;SDS011;68562;51.600;6.524;2024-01-27T01:20:00;1.0;;;1.0;;
79147;SDS011;68562;51.600;6.524;2024-01-27T01:25:00;0.8;;;0.8;;
79147;SDS011;68562;51.600;6.524;2024-01-27T01:30:00;0.6;;;0.6;;
79147;SDS011;68562;51.600;6.524;2024-01-27T01:35:00;0.5;;;0.5;;
79147;SDS011;68562;51.600;6.524;2024-01-27T01:40:00;4.4;;;1.8;;
79147;SDS011;68562;51.600;6.524;2024-01-27T01:45:00;5.1;;;0.8;;
79147;SDS011;68562;51.600;6.524;2024-01-27T01:50:00;1.1;;;1.0;;
79147;SDS011;68562;51.600;6.524;2024-01-27T01:55:00;1.2;;;1.0;;
79147;SDS011;68562;51.600;6.524;2024-01-27T02:00:00;1.0;;;1.0;;
79147;SDS011;68562;51.600;6.524;2024-01-27T02:05:00;1.8;;;1.4;;
79147;SDS011;68562;51.600;6.524;2024-01-27T02:10:00;2.5;;;2.4;;
79147;SDS011;68562;51.600;6.524;2024-01-27T02:15:00;0.8;;;0.8;;
79147;SDS011;68562;51.600;6.524;2024-01-27T02:20:00;4.3;;;0.9;;
79147;SDS011;68562;51.600;6.524;2024-01-27T02:25:00;3.0;;;0.5;;
79147;SDS011;68562;51.600;6.524;2024-01-27T02:30:00;0.8;;;0.8;;
79147;SDS011;68562;51.600;6.524;2024-01-27T02:35:00;0.7;;;0.7;;
79147;SDS011;68562;51.600;6.524;2024-01-27T02:40:02;1.0;;;1.0;;
79147;SDS011;68562;51.600;6.524;2024-01-27T02:45:00;0.8;;;0.8;;
79147;SDS011;68562;51.600;6.524;2024-01-27T02:50:00;0.9;;;0.9;;
79147;SDS011;68562;51.600;6.524;2024-01-27T02:55:00;0.6;;;0.6;;
79147;SDS011;68562;51.600;6.524;2024-01-27T03:00:00;0.8;;;0.8;;
79147;SDS011;68562;51.600;6.524;2024-01-27T03:05:00;1.6;;;0.9;;
79147;SDS011;68562;51.600;6.524;2024-01-27T03:10:00;1.8;;;1.0;;
79147;SDS011;68562;51.600;6.524;2024-01-27T03:15:00;0.7;;;0.7;;
79147;SDS011;68562;51.600;6.524;2024-01-27T03:20:00;1.5;;;1.4;;
79147;SDS011;68562;51.600;6.524;2024-01-27T03:25:01;0.5;;;0.5;;
79147;SDS011;68562;51.600;6.524;2024-01-27T03:30:00;1.1;;;1.0;;
79147;SDS011;68562;51.600;6.524;2024-01-27T03:35:00;1.2;;;1.1;;
79147;SDS011;68562;51.600;6.524;2024-01-27T03:40:00;14.1;;;1.0;;
79147;SDS011;68562;51.600;6.524;2024-01-27T03:45:00;1.3;;;1.2;;
79147;SDS011;68562;51.600;6.524;2024-01-27T03:50:00;0.5;;;0.5;;
79147;SDS011;68562;51.600;6.524;2024-01-27T03:55:00;1.9;;;1.8;;
79147;SDS011;68562;51.600;6.524;2024-01-27T04:00:00;0.5;;;0.5;;
79147;SDS011;68562;51.600;6.524;2024-01-27T04:05:00;0.6;;;0.6;;
79147;SDS011;68562;51.600;6.524;2024-01-27T04:10:01;1.1;;;1.1;;
79147;SDS011;68562;51.600;6.524;2024-01-27T04:15:00;1.6;;;1.5;;
79147;SDS011;68562;51.600;6.524;2024-01-27T04:20:00;0.9;;;0.9;;
79147;SDS011;68562;51.600;6.524;2024-01-27T04:25:01;1.2;;;1.1;;
79147;SDS011;68562;51.600;6.524;2024-01-27T04:30:00;4.2;;;1.1;;
79147;SDS011;68562;51.600;6.524;2024-01-27T04:35:00;2.8;;;2.6;;
79147;SDS011;68562;51.600;6.524;2024-01-27T04:40:00;1.3;;;1.2;;
79147;SDS011;68562;51.600;6.524;2024-01-27T04:45:00;0.6;;;0.6;;
79147;SDS011;68562;51.600;6.524;2024-01-27T04:50:00;0.7;;;0.7;;
79147;SDS011;68562;51.600;6.524;2024-01-27T04:55:00;0.6;;;0.6;;
79147;SDS011;68562;51.600;6.524;2024-01-27T05:00:00;3.8;;;1.4;;
79147;SDS011;68562;51.600;6.524;2024-01-27T05:05:01;0.8;;;0.8;;
79147;SDS011;68562;51.600;6.524;2024-01-27T05:10:00;3.2;;;1.6;;
79147;SDS011;68562;51.600;6.524;2024-01-27T05:15:00;6.9;;;2.9;;
79147;SDS011;68562;51.600;6.524;2024-01-27T05:20:00;0.7;;;0.7;;
79147;SDS011;68562;51.600;6.524;2024-01-27T05:25:00;5.2;;;1.8;;
79147;SDS011;68562;51.600;6.524;2024-01-27T05:30:00;1.6;;;1.1;;
79147;SDS011;68562;51.600;6.524;2024-01-27T05:35:00;1.0;;;1.0;;
79147;SDS011;68562;51.600;6.524;2024-01-27T05:40:00;0.6;;;0.6;;
79147;SDS011;68562;51.600;6.524;2024-01-27T05:45:00;0.8;;;0.8;;
79147;SDS011;68562;51.600;6.524;2024-01-27T05:50:01;1.8;;;1.1;;
79147;SDS011;68562;51.600;6.524;2024-01-27T05:55:00;11.2;;;1.6;;
79147;SDS011;68562;51.600;6.524;2024-01-27T06:00:00;0.6;;;0.6;;
79147;SDS011;68562;51.600;6.524;2024-01-27T06:05:01;0.8;;;0.7;;
79147;SDS011;68562;51.600;6.524;2024-01-27T06:10:00;2.0;;;1.8;;
79147;SDS011;68562;51.600;6.524;2024-01-27T06:15:00;17.7;;;2.3;;
79147;SDS011;68562;51.600;6.524;2024-01-27T06:20:00;1.1;;;1.1;;
79147;SDS011;68562;51.600;6.524;2024-01-27T06:25:00;1.2;;;1.1;;
79147;SDS011;68562;51.600;6.524;2024-01-27T06:30:00;0.5;;;0.5;;
79147;SDS011;68562;51.600;6.524;2024-01-27T06:35:00;0.7;;;0.7;;
79147;SDS011;68562;51.600;6.524;2024-01-27T06:40:00;0.9;;;0.9;;
79147;SDS011;68562;51.600;6.524;2024-01-27T06:45:00;1.2;;;1.1;;
79147;SDS011;68562;51.600;6.524;2024-01-27T06:50:00;1.6;;;1.5;;
79147;SDS011;68562;51.600;6.524;2024-01-27T06:55:00;1.5;;;1.4;;
79147;SDS011;68562;51.600;6.524;2024-01-27T07:00:00;1.5;;;1.4;;
79147;SDS011;68562;51.600;6.524;2024-01-27T07:05:00;1.0;;;1.0;;
79147;SDS011;68562;51.600;6.524;2024-01-27T07:10:00;1.7;;;1.3;;
79147;SDS011;68562;51.600;6.524;2024-01-27T07:15:00;0.8;;;0.8;;
79147;SDS011;68562;51.600;6.524;2024-01-27T07:20:00;1.6;;;1.5;;
79147;SDS011;68562;51.600;6.524;2024-01-27T07:25:00;1.3;;;1.3;;
79147;SDS011;68562;51.600;6.524;2024-01-27T07:30:00;2.3;;;2.1;;
79147;SDS011;68562;51.600;6.524;2024-01-27T07:35:01;1.9;;;1.8;;
79147;SDS011;68562;51.600;6.524;2024-01-27T07:40:00;1.3;;;1.3;;
79147;SDS011;68562;51.600;6.524;2024-01-27T07:45:00;4.1;;;0.7;;
79147;SDS011;68562;51.600;6.524;2024-01-27T07:50:00;2.0;;;1.9;;
79147;SDS011;68562;51.600;6.524;2024-01-27T07:55:00;0.8;;;0.8;;
79147;SDS011;68562;51.600;6.524;2024-01-27T08:00:01;2.5;;;1.1;;
79147;SDS011;68562;51.600;6.524;2024-01-27T08:05:00;0.8;;;0.7;;
79147;SDS011;68562;51.600;6.524;2024-01-27T08:10:02;0.8;;;0.8;;
79147;SDS011;68562;51.600;6.524;2024-01-27T08:15:00;1.0;;;1.0;;
79147;SDS011;68562;51.600;6.524;2024-01-27T08:20:00;1.5;;;1.4;;
79147;SDS011;68562;51.600;6.524;2024-01-27T08:25:00;0.8;;;0.8;;
79147;SDS011;68562;51.600;6.524;2024-01-27T08:30:00;0.6;;;0.6;;
79147;SDS011;68562;51.600;6.524;2024-01-27T08:35:00;0.7;;;0.7;;
79147;SDS011;68562;51.600;6.524;2024-01-27T08:40:01;0.4;;;0.4;;
79147;SDS011;68562;51.600;6.524;2024-01-27T08:45:00;2.3;;;1.8;;
79147;SDS011;68562;51.600;6.524;2024-01-27T08:50:00;1.0;;;1.0;;
79147;SDS011;68562;51.600;6.524;2024-01-27T08:55:00;0.6;;;0.6;;
79147;SDS011;68562;51.600;6.524;2024-01-27T09:00:00;1.4;;;1.3;;
79147;SDS011;68562;51.600;6.524;2024-01-27T09:05:00;2.3;;;2.0;;
79147;SDS011;68562;51.600;6.524;2024-01-27T09:10:00;1.0;;;1.0;;
79147;SDS011;68562;51.600;6.524;2024-01-27T09:15:00;1.4;;;1.3;;
79147;SDS011;68562;51.600;6.524;2024-01-27T09:20:03;0.8;;;0.8;;
79147;SDS011;68562;51.600;6.524;2024-01-27T09:25:00;1.3;;;1.2;;
79147;SDS011;68562;51.600;6.524;2024-01-27T09:30:00;0.9;;;0.9;;
79147;SDS011;68562;51.600;6.524;2024-01-27T09:35:00;4.7;;;1.8;;
79147;SDS011;68562;51.600;6.524;2024-01-27T09:40:01;3.0;;;1.7;;
79147;SDS011;68562;51.600;6.524;2024-01-27T09:45:00;3.2;;;2.0;;
79147;SDS011;68562;51.600;6.524;2024-01-27T09:50:00;0.9;;;0.9;;
79147;SDS011;68562;51.600;6.524;2024-01-27T09:55:00;1.4;;;1.3;;
79147;SDS011;68562;51.600;6.524;2024-01-27T10:00:00;1.1;;;1.0;;
79147;SDS011;68562;51.600;6.524;2024-01-27T10:05:00;1.1;;;0.8;;
79147;SDS011;68562;51.600;6.524;2024-01-27T10:10:00;1.1;;;1.0;;
79147;SDS011;68562;51.600;6.524;2024-01-27T10:15:00;1.1;;;1.0;;
79147;SDS011;68562;51.600;6.524;2024-01-27T10:20:01;0.9;;;0.7;;
79147;SDS011;68562;51.600;6.524;2024-01-27T10:25:00;0.8;;;0.8;;
79147;SDS011;68562;51.600;6.524;2024-01-27T10:30:00;5.6;;;1.5;;
79147;SDS011;68562;51.600;6.524;2024-01-27T10:35:01;1.4;;;1.1;;
79147;SDS011;68562;51.600;6.524;2024-01-27T10:40:00;2.1;;;0.8;;
79147;SDS011;68562;51.600;6.524;2024-01-27T10:45:00;1.4;;;1.1;;
79147;SDS011;68562;51.600;6.524;2024-01-27T10:50:00;3.1;;;1.4;;
79147;SDS011;68562;51.600;6.524;2024-01-27T10:55:00;1.0;;;0.9;;
79147;SDS011;68562;51.600;6.524;2024-01-27T11:00:00;0.9;;;0.9;;
79147;SDS011;68562;51.600;6.524;2024-01-27T11:05:02;1.4;;;1.3;;
79147;SDS011;68562;51.600;6.524;2024-01-27T11:10:00;1.7;;;0.9;;
79147;SDS011;68562;51.600;6.524;2024-01-27T11:15:00;1.8;;;0.6;;
79147;SDS011;68562;51.600;6.524;2024-01-27T11:20:00;0.7;;;0.7;;
79147;SDS011;68562;51.600;6.524;2024-01-27T11:25:07;1.3;;;1.2;;
79147;SDS011;68562;51.600;6.524;2024-01-27T11:30:00;3.9;;;1.4;;
79147;SDS011;68562;51.600;6.524;2024-01-27T11:35:01;0.9;;;0.9;;
79147;SDS011;68562;51.600;6.524;2024-01-27T11:40:03;1.5;;;0.9;;
79147;SDS011;68562;51.600;6.524;2024-01-27T11:45:00;7.1;;;2.8;;
79147;SDS011;68562;51.600;6.524;2024-01-27T11:50:00;7.1;;;1.8;;
79147;SDS011;68562;51.600;6.524;2024-01-27T11:55:00;1.4;;;1.3;;
79147;SDS011;68562;51.600;6.524;2024-01-27T12:00:00;1.5;;;0.8;;
79147;SDS011;68562;51.600;6.524;2024-01-27T12:05:01;1.6;;;1.0;;
79147;SDS011;68562;51.600;6.524;2024-01-27T12:10:00;1.5;;;1.4;;
79147;SDS011;68562;51.600;6.524;2024-01-27T12:15:00;3.1;;;0.9;;
79147;SDS011;68562;51.600;6.524;2024-01-27T12:20:01;0.5;;;0.5;;
79147;SDS011;68562;51.600;6.524;2024-01-27T12:25:07;1.0;;;0.8;;
79147;SDS011;68562;51.600;6.524;2024-01-27T12:30:00;2.0;;;1.9;;
79147;SDS011;68562;51.600;6.524;2024-01-27T12:35:04;1.5;;;1.2;;
79147;SDS011;68562;51.600;6.524;2024-01-27T12:40:00;1.4;;;1.0;;
79147;SDS011;68562;51.600;6.524;2024-01-27T12:45:01;0.7;;;0.6;;
79147;SDS011;68562;51.600;6.524;2024-01-27T12:50:01;2.0;;;0.9;;
79147;SDS011;68562;51.600;6.524;2024-01-27T12:55:00;2.6;;;1.6;;
79147;SDS011;68562;51.600;6.524;2024-01-27T13:00:00;1.3;;;1.0;;
79147;SDS011;68562;51.600;6.524;2024-01-27T13:05:01;0.7;;;0.7;;
79147;SDS011;68562;51.600;6.524;2024-01-27T13:10:00;0.5;;;0.5;;
79147;SDS011;68562;51.600;6.524;2024-01-27T13:15:00;0.8;;;0.8;;
79147;SDS011;68562;51.600;6.524;2024-01-27T13:20:01;4.5;;;2.4;;
79147;SDS011;68562;51.600;6.524;2024-01-27T13:25:00;0.7;;;0.7;;
79147;SDS011;68562;51.600;6.524;2024-01-27T13:30:00;0.9;;;0.8;;
79147;SDS011;68562;51.600;6.524;2024-01-27T13:35:00;1.2;;;1.1;;
79147;SDS011;68562;51.600;6.524;2024-01-27T13:40:00;1.4;;;1.0;;
79147;SDS011;68562;51.600;6.524;2024-01-27T13:45:00;2.0;;;1.9;;
79147;SDS011;68562;51.600;6.524;2024-01-27T13:50:01;1.7;;;1.6;;
79147;SDS011;68562;51.600;6.524;2024-01-27T13:55:00;2.4;;;1.2;;
79147;SDS011;68562;51.600;6.524;2024-01-27T14:00:00;7.5;;;1.1;;
79147;SDS011;68562;51.600;6.524;2024-01-27T14:05:00;1.4;;;1.2;;
79147;SDS011;68562;51.600;6.524;2024-01-27T14:10:00;2.7;;;1.5;;
79147;SDS011;68562;51.600;6.524;2024-01-27T14:15:02;3.6;;;2.2;;
79147;SDS011;68562;51.600;6.524;2024-01-27T14:20:00;2.6;;;1.4;;
79147;SDS011;68562;51.600;6.524;2024-01-27T14:25:00;2.0;;;1.7;;
79147;SDS011;68562;51.600;6.524;2024-01-27T14:30:00;1.4;;;1.3;;
79147;SDS011;68562;51.600;6.524;2024-01-27T14:35:02;1.0;;;1.0;;
79147;SDS011;68562;51.600;6.524;2024-01-27T14:40:00;2.3;;;1.7;;
79147;SDS011;68562;51.600;6.524;2024-01-27T14:45:00;4.3;;;1.0;;
79147;SDS011;68562;51.600;6.524;2024-01-27T14:50:00;2.8;;;2.0;;
79147;SDS011;68562;51.600;6.524;2024-01-27T14:55:00;1.5;;;0.6;;
79147;SDS011;68562;51.600;6.524;2024-01-27T15:00:00;2.5;;;0.9;;
79147;SDS011;68562;51.600;6.524;2024-01-27T15:05:00;0.5;;;0.4;;
79147;SDS011;68562;51.600;6.524;2024-01-27T15:10:00;0.5;;;0.5;;
79147;SDS011;68562;51.600;6.524;2024-01-27T15:15:00;1.3;;;1.0;;
79147;SDS011;68562;51.600;6.524;2024-01-27T15:20:00;2.0;;;1.8;;
79147;SDS011;68562;51.600;6.524;2024-01-27T15:25:00;0.9;;;0.9;;
79147;SDS011;68562;51.600;6.524;2024-01-27T15:30:00;0.4;;;0.4;;
79147;SDS011;68562;51.600;6.524;2024-01-27T15:35:00;0.9;;;0.7;;
79147;SDS011;68562;51.600;6.524;2024-01-27T15:40:00;0.4;;;0.4;;
79147;SDS011;68562;51.600;6.524;2024-01-27T15:45:00;0.5;;;0.5;;
79147;SDS011;68562;51.600;6.524;2024-01-27T15:50:00;0.7;;;0.7;;
79147;SDS011;68562;51.600;6.524;2024-01-27T15:55:00;1.8;;;0.9;;
79147;SDS011;68562;51.600;6.524;2024-01-27T16:00:00;1.8;;;1.0;;
79147;SDS011;68562;51.600;6.524;2024-01-27T16:05:01;0.7;;;0.7;;
79147;SDS011;68562;51.600;6.524;2024-01-27T16:10:00;1.9;;;1.5;;
79147;SDS011;68562;51.600;6.524;2024-01-27T16:15:00;2.7;;;2.5;;
79147;SDS011;68562;51.600;6.524;2024-01-27T16:20:00;4.9;;;3.9;;
79147;SDS011;68562;51.600;6.524;2024-01-27T16:25:00;2.0;;;1.4;;
79147;SDS011;68562;51.600;6.524;2024-01-27T16:30:00;4.3;;;2.1;;
79147;SDS011;68562;51.600;6.524;2024-01-27T16:35:01;13.7;;;7.6;;
79147;SDS011;68562;51.600;6.524;2024-01-27T16:40:00;21.7;;;11.9;;
79147;SDS011;68562;51.600;6.524;2024-01-27T16:45:00;23.8;;;8.6;;
79147;SDS011;68562;51.600;6.524;2024-01-27T16:50:00;9.8;;;5.0;;
79147;SDS011;68562;51.600;6.524;2024-01-27T16:55:00;3.1;;;2.6;;
79147;SDS011;68562;51.600;6.524;2024-01-27T17:00:00;5.1;;;1.5;;
79147;SDS011;68562;51.600;6.524;2024-01-27T17:05:00;1.6;;;1.5;;
79147;SDS011;68562;51.600;6.524;2024-01-27T17:10:00;2.1;;;1.1;;
79147;SDS011;68562;51.600;6.524;2024-01-27T17:15:00;0.7;;;0.6;;
79147;SDS011;68562;51.600;6.524;2024-01-27T17:20:00;0.9;;;0.9;;
79147;SDS011;68562;51.600;6.524;2024-01-27T17:25:00;0.7;;;0.7;;
79147;SDS011;68562;51.600;6.524;2024-01-27T17:30:00;0.7;;;0.6;;
79147;SDS011;68562;51.600;6.524;2024-01-27T17:35:00;1.3;;;1.2;;
79147;SDS011;68562;51.600;6.524;2024-01-27T17:40:00;0.6;;;0.6;;
79147;SDS011;68562;51.600;6.524;2024-01-27T17:45:00;1.4;;;1.3;;
79147;SDS011;68562;51.600;6.524;2024-01-27T17:50:00;0.9;;;0.8;;
79147;SDS011;68562;51.600;6.524;2024-01-27T17:55:00;5.1;;;1.0;;
79147;SDS011;68562;51.600;6.524;2024-01-27T18:00:00;0.7;;;0.7;;
79147;SDS011;68562;51.600;6.524;2024-01-27T18:05:00;0.7;;;0.7;;
79147;SDS011;68562;51.600;6.524;2024-01-27T18:10:00;2.9;;;2.3;;
79147;SDS011;68562;51.600;6.524;2024-01-27T18:15:00;3.2;;;2.3;;
79147;SDS011;68562;51.600;6.524;2024-01-27T18:20:01;2.8;;;1.1;;
79147;SDS011;68562;51.600;6.524;2024-01-27T18:25:00;0.8;;;0.8;;
79147;SDS011;68562;51.600;6.524;2024-01-27T18:30:00;1.1;;;1.0;;
79147;SDS011;68562;51.600;6.524;2024-01-27T18:35:01;2.2;;;1.6;;
79147;SDS011;68562;51.600;6.524;2024-01-27T18:40:00;2.8;;;1.1;;
79147;SDS011;68562;51.600;6.524;2024-01-27T18:45:00;1.0;;;0.9;;
79147;SDS011;68562;51.600;6.524;2024-01-27T18:50:00;8.9;;;1.2;;
79147;SDS011;68562;51.600;6.524;2024-01-27T18:55:00;2.1;;;2.0;;
79147;SDS011;68562;51.600;6.524;2024-01-27T19:00:00;1.8;;;1.3;;
79147;SDS011;68562;51.600;6.524;2024-01-27T19:05:01;0.7;;;0.7;;
79147;SDS011;68562;51.600;6.524;2024-01-27T19:10:00;0.8;;;0.8;;
79147;SDS011;68562;51.600;6.524;2024-01-27T19:15:00;0.5;;;0.5;;
79147;SDS011;68562;51.600;6.524;2024-01-27T19:20:01;1.1;;;1.0;;
79147;SDS011;68562;51.600;6.524;2024-01-27T19:25:00;3.1;;;1.4;;
79147;SDS011;68562;51.600;6.524;2024-01-27T19:30:00;0.7;;;0.7;;
79147;SDS011;68562;51.600;6.524;2024-01-27T19:35:00;0.8;;;0.8;;
79147;SDS011;68562;51.600;6.524;2024-01-27T19:40:00;0.5;;;0.5;;
79147;SDS011;68562;51.600;6.524;2024-01-27T19:45:00;0.9;;;0.9;;
79147;SDS011;68562;51.600;6.524;2024-01-27T19:50:00;0.9;;;0.9;;
79147;SDS011;68562;51.600;6.524;2024-01-27T19:55:00;1.6;;;1.5;;
79147;SDS011;68562;51.600;6.524;2024-01-27T20:00:00;0.7;;;0.7;;
79147;SDS011;68562;51.600;6.524;2024-01-27T20:05:00;1.3;;;1.2;;
79147;SDS011;68562;51.600;6.524;2024-01-27T20:10:00;0.9;;;0.9;;
79147;SDS011;68562;51.600;6.524;2024-01-27T20:15:00;0.6;;;0.6;;
79147;SDS011;68562;51.600;6.524;2024-01-27T20:20:00;2.9;;;1.5;;
79147;SDS011;68562;51.600;6.524;2024-01-27T20:25:00;0.7;;;0.7;;
79147;SDS011;68562;51.600;6.524;2024-01-27T20:30:00;1.0;;;0.9;;
79147;SDS011;68562;51.600;6.524;2024-01-27T20:35:00;0.9;;;0.9;;
79147;SDS011;68562;51.600;6.524;2024-01-27T20:40:00;2.1;;;2.0;;
79147;SDS011;68562;51.600;6.524;2024-01-27T20:45:00;1.8;;;1.1;;
79147;SDS011;68562;51.600;6.524;2024-01-27T20:50:00;2.3;;;1.3;;
79147;SDS011;68562;51.600;6.524;2024-01-27T20:55:00;1.3;;;1.2;;
79147;SDS011;68562;51.600;6.524;2024-01-27T21:00:00;0.9;;;0.9;;
79147;SDS011;68562;51.600;6.524;2024-01-27T21:05:00;0.7;;;0.7;;
79147;SDS011;68562;51.600;6.524;2024-01-27T21:10:00;1.2;;;0.9;;
79147;SDS011;68562;51.600;6.524;2024-01-27T21:15:00;2.9;;;1.7;;
79147;SDS011;68562;51.600;6.524;2024-01-27T21:20:00;1.1;;;1.0;;
79147;SDS011;68562;51.600;6.524;2024-01-27T21:25:01;3.0;;;1.5;;
79147;SDS011;68562;51.600;6.524;2024-01-27T21:30:00;2.2;;;2.1;;
79147;SDS011;68562;51.600;6.524;2024-01-27T21:35:00;1.1;;;1.1;;
79147;SDS011;68562;51.600;6.524;2024-01-27T21:40:00;1.5;;;1.4;;
79147;SDS011;68562;51.600;6.524;2024-01-27T21:45:00;1.1;;;0.9;;
79147;SDS011;68562;51.600;6.524;2024-01-27T21:50:00;2.5;;;2.2;;
79147;SDS011;68562;51.600;6.524;2024-01-27T21:55:00;1.0;;;1.0;;
79147;SDS011;68562;51.600;6.524;2024-01-27T22:00:00;1.7;;;1.5;;
79147;SDS011;68562;51.600;6.524;2024-01-27T22:05:00;5.1;;;1.6;;
79147;SDS011;68562;51.600;6.524;2024-01-27T22:10:00;2.7;;;2.5;;
79147;SDS011;68562;51.600;6.524;2024-01-27T22:15:00;0.6;;;0.6;;
79147;SDS011;68562;51.600;6.524;2024-01-27T22:20:00;1.2;;;1.1;;
79147;SDS011;68562;51.600;6.524;2024-01-27T22:25:00;0.7;;;0.7;;
79147;SDS011;68562;51.600;6.524;2024-01-27T22:30:00;3.4;;;1.7;;
79147;SDS011;68562;51.600;6.524;2024-01-27T22:35:00;0.9;;;0.9;;
79147;SDS011;68562;51.600;6.524;2024-01-27T22:40:00;1.7;;;1.0;;
79147;SDS011;68562;51.600;6.524;2024-01-27T22:45:00;1.3;;;1.2;;
79147;SDS011;68562;51.600;6.524;2024-01-27T22:50:00;2.6;;;0.9;;
79147;SDS011;68562;51.600;6.524;2024-01-27T22:55:00;2.9;;;1.4;;
79147;SDS011;68562;51.600;6.524;2024-01-27T23:00:00;2.4;;;1.4;;
79147;SDS011;68562;51.600;6.524;2024-01-27T23:05:00;1.2;;;1.2;;
79147;SDS011;68562;51.600;6.524;2024-01-27T23:10:00;2.2;;;0.8;;
79147;SDS011;68562;51.600;6.524;2024-01-27T23:15:00;0.8;;;0.6;;
79147;SDS011;68562;51.600;6.524;2024-01-27T23:20:00;0.9;;;0.9;;
79147;SDS011;68562;51.600;6.524;2024-01-27T23:25:01;2.3;;;1.4;;
79147;SDS011;68562;51.600;6.524;2024-01-27T23:30:02;0.6;;;0.6;;
79147;SDS011;68562;51.600;6.524;2024-01-27T23:35:00;0.5;;;0.5;;
79147;SDS011;68562;51.600;6.524;2024-01-27T23:40:00;0.7;;;0.7;;
79147;SDS011;68562;51.600;6.524;2024-01-27T23:45:01;0.8;;;0.8;;
79147;SDS011;68562;51.600;6.524;2024-01-27T23:50:00;0.9;;;0.9;;
79147;SDS011;68562;51.600;6.524;2024-01-27T23:55:00;1.4;;;1.3;;
